Detall de PIREP

Printer-friendly versionPDF version

[2016/10/15 07:55:00]
Flight IATA:CT2207
Pilot Number:012
Company ICAO:CAT
Aircraft Type:BE20/A
PAX:6
Departing Airport: LFSB
Destination Airport: LFMP
Alternate Airport:LEBL
Online: VATSIM
Route:LUMEL UN176 MOROK UN852 TUROM UQ302 NINTU UN869 MOKDI UY27 SIJAN
Flight Level:F230
No Slew and time accel
No pause
Crash detect
Detect pilot in Cockpit between each 30 and 45 minutes
07:55 Zero fuel Weight: 9756 Lbs, Fuel Weight: 1593 Lbs
07:55 VATSIM:LFSB 150730Z VRB02KT 7000 FEW007 BKN035 09/08 Q1014 NOSIG
07:55 VATSIM:LFMP 150730Z AUTO 00000KT CAVOK 13/10 Q1014 NOSIG
07:55 VIP TRANSPORT
07:56 Parking Brakes off
08:03 Take-off
08:03 Take off Weight: 11329 Lbs
08:03 Wind: 358º @ 002 Knots Heading: 157º
08:03 POS N47º 35´ 55´´ E007º 31´ 21´´
08:03 Gear Up: 123 Knots
08:03 Flaps:1 at 123 Knots
08:03 Flaps:0 at 117 Knots
08:18 Wind:270º@020 Knots Heading: 266º Ground Speed: 165 Knots Altitude 22513 ft
08:18 TOC
08:18 Fuel Weight: 1388 Lb
08:33 Wind:278º@024 Knots Heading: 207º Ground Speed: 251 Knots Altitude 23044 ft
08:48 Wind:276º@024 Knots Heading: 238º Ground Speed: 240 Knots Altitude 23051 ft
09:03 Wind:269º@027 Knots Heading: 236º Ground Speed: 235 Knots Altitude 23028 ft
09:18 Wind:265º@026 Knots Heading: 184º Ground Speed: 256 Knots Altitude 23028 ft
09:31 TOD
09:31 Fuel Weight: 670 Lb
09:33 Wind:272º@021 Knots Heading: 187º Ground Speed: 306 Knots Altitude 20275 ft
09:44 Flaps:1 at 152 Knots
09:45 Gear Down: 164 Knots
09:45 Flaps:2 at 154 Knots
09:48 Wind:220º@003 Knots Heading: 328º Ground Speed: 138 Knots Altitude 1318 ft
09:49 TouchDown:Rate -83 ft/min Speed: 105 Knots
09:50 VATSIM:LFMP 150930Z AUTO VRB01KT CAVOK 18/10 Q1015
09:50 Land
09:50 Wind:229º@003 Knots
09:50 Heading: 322º
09:50 Flight Duration: 01:47
09:50 Landing Weight: 10277 Lbs
09:50 POS N42º 44´ 57´´ E002º 51´ 55´´
09:53 Parking brakes on
09:53 Block to Block Duration: 01:57
09:53 Final Fuel: 511 Lbls
09:53 Spent Fuel: 1082 Lbls
09:53 Flight Length: 407 NM
09:53 TOD Land Length: 71 NM

Exportar CSV

Powered by Drupal - Modified by Danger4k